Time;durP1;ratioP1;P1;durP2;ratioP2;P2;SDS_P1;SDS_P2;PMS_P1;PMS_P2;Temp;Humidity;BMP_temperature;BMP_pressure;BME280_temperature;BME280_humidity;BME280_pressure;Samples;Min_cycle;Max_cycle;Signal;HPM_P1;HPM_P2
2022/05/27 00:01:06;;;;;;;2.23;1.60;;;;;;;15.80;74.70;100734.16;4950701;28;20661;-74
2022/05/27 00:03:33;;;;;;;3.20;1.40;;;;;;;15.82;74.65;100737.56;4954397;28;20194;-74
2022/05/27 00:05:59;;;;;;;2.10;1.40;;;;;;;15.82;74.55;100734.94;4954342;28;20198;-74
2022/05/27 00:08:26;;;;;;;4.37;1.70;;;;;;;15.82;74.67;100727.88;4951228;28;20199;-74
2022/05/27 00:10:52;;;;;;;2.20;1.57;;;;;;;15.84;74.44;100727.81;4949794;28;20226;-74
2022/05/27 00:13:18;;;;;;;1.97;1.70;;;;;;;15.82;75.12;100717.38;4949568;28;20199;-74
2022/05/27 00:15:46;;;;;;;2.53;1.60;;;;;;;15.83;74.76;100718.22;4950456;28;20196;-74
2022/05/27 00:18:12;;;;;;;1.47;1.37;;;;;;;15.84;74.81;100709.41;4947240;28;20210;-74
2022/05/27 00:20:39;;;;;;;2.10;1.47;;;;;;;15.85;75.18;100703.25;4942910;28;20227;-74
2022/05/27 00:23:06;;;;;;;2.43;1.53;;;;;;;15.84;75.46;100696.28;4950246;28;20202;-74
2022/05/27 00:25:33;;;;;;;3.30;1.67;;;;;;;15.83;75.07;100690.16;4949267;28;20268;-74
2022/05/27 00:28:00;;;;;;;4.30;1.50;;;;;;;15.84;75.09;100696.28;4952161;28;20199;-75
2022/05/27 00:30:27;;;;;;;1.73;1.40;;;;;;;15.85;74.90;100685.69;4942994;28;20230;-74
2022/05/27 00:32:55;;;;;;;1.63;1.43;;;;;;;15.86;74.46;100684.75;4945527;28;20230;-74
2022/05/27 00:35:23;;;;;;;1.20;1.10;;;;;;;15.89;74.96;100676.72;4943716;28;20229;-75
2022/05/27 00:37:49;;;;;;;1.60;1.27;;;;;;;15.90;74.24;100673.19;4948973;28;20213;-74
2022/05/27 00:40:17;;;;;;;2.57;1.70;;;;;;;15.90;74.13;100669.72;4955015;28;20236;-75
2022/05/27 00:42:45;;;;;;;2.37;1.30;;;;;;;15.92;74.33;100669.59;4954359;28;20213;-74
2022/05/27 00:45:16;;;;;;;1.70;1.10;;;;;;;15.93;73.78;100674.78;4950539;28;20195;-74
2022/05/27 00:47:43;;;;;;;1.67;1.10;;;;;;;15.96;73.20;100679.91;4954798;28;20567;-74
2022/05/27 00:50:15;;;;;;;2.13;1.37;;;;;;;15.99;73.74;100678.91;4949468;28;20617;-74
2022/05/27 00:52:44;;;;;;;3.97;1.70;;;;;;;15.99;73.75;100673.66;4951427;28;20206;-74
2022/05/27 00:55:18;;;;;;;1.70;1.30;;;;;;;15.98;73.75;100675.44;4949998;28;20199;-74
2022/05/27 00:57:49;;;;;;;3.00;1.53;;;;;;;15.99;73.59;100673.66;4947790;28;20191;-74
2022/05/27 01:00:19;;;;;;;1.43;1.23;;;;;;;16.01;73.33;100671.81;4950173;28;20215;-74
2022/05/27 01:02:46;;;;;;;1.93;1.20;;;;;;;16.02;73.81;100670.88;4948917;28;20389;-74
2022/05/27 01:05:16;;;;;;;1.47;1.37;;;;;;;16.03;72.73;100669.97;4949261;28;20578;-74
2022/05/27 01:07:43;;;;;;;2.07;1.30;;;;;;;16.03;73.29;100675.22;4950749;28;20198;-74
2022/05/27 01:10:12;;;;;;;1.77;1.30;;;;;;;16.02;73.33;100663.00;4948745;28;20310;-74
2022/05/27 01:12:55;;;;;;;1.20;1.10;;;;;;;16.02;72.96;100657.72;4952331;28;20200;-74
2022/05/27 01:15:31;;;;;;;2.53;1.27;;;;;;;16.02;73.30;100647.22;4951658;28;20215;-74
2022/05/27 01:22:06;;;;;;;1.67;1.20;;;;;;;16.03;73.02;100646.28;4952949;28;20206;-74
2022/05/27 01:24:51;;;;;;;3.73;1.50;;;;;;;16.04;72.93;100648.84;4954327;28;20216;-74
2022/05/27 01:27:45;;;;;;;2.10;1.40;;;;;;;16.05;72.21;100647.06;4955059;28;20206;-74
2022/05/27 01:30:21;;;;;;;1.53;1.00;;;;;;;16.07;71.88;100642.56;4955530;28;20606;-75
2022/05/27 01:32:56;;;;;;;1.83;1.40;;;;;;;16.07;72.68;100639.94;4952798;28;20202;-74
2022/05/27 01:35:31;;;;;;;3.00;1.20;;;;;;;16.07;72.53;100640.78;4953832;28;20198;-74
2022/05/27 01:38:15;;;;;;;1.40;1.10;;;;;;;16.06;72.33;100638.25;4946824;28;20203;-74
2022/05/27 01:40:49;;;;;;;2.27;1.20;;;;;;;16.08;72.21;100641.66;4949903;28;20233;-74
2022/05/27 01:43:19;;;;;;;3.43;1.27;;;;;;;16.06;72.83;100641.75;4950625;28;20207;-75
2022/05/27 01:45:55;;;;;;;3.93;1.27;;;;;;;16.08;72.92;100639.03;4952792;28;20656;-74
2022/05/27 01:48:28;;;;;;;2.33;1.30;;;;;;;16.06;72.54;100639.09;4948185;28;20199;-75
2022/05/27 01:51:01;;;;;;;1.50;1.40;;;;;;;16.06;72.89;100635.63;4951180;28;20277;-74
2022/05/27 01:53:32;;;;;;;1.70;1.10;;;;;;;16.05;73.46;100631.28;4949501;28;20476;-74
2022/05/27 01:56:06;;;;;;;2.13;1.43;;;;;;;16.05;72.49;100626.03;4950871;28;20202;-74
2022/05/27 01:58:36;;;;;;;1.53;1.20;;;;;;;16.08;72.22;100629.34;4948857;28;20199;-74
2022/05/27 02:01:08;;;;;;;4.03;1.20;;;;;;;16.13;71.36;100628.28;4952017;28;20231;-74
2022/05/27 02:03:38;;;;;;;2.30;1.30;;;;;;;16.12;72.79;100634.47;4950971;28;20297;-74
2022/05/27 02:06:09;;;;;;;2.23;1.10;;;;;;;16.12;71.77;100630.06;4953234;28;20199;-74
2022/05/27 02:08:40;;;;;;;1.30;1.20;;;;;;;16.11;72.64;100630.13;4947014;28;20285;-74
2022/05/27 02:11:11;;;;;;;2.83;1.40;;;;;;;16.11;72.14;100635.38;4953900;28;20230;-75
2022/05/27 02:13:42;;;;;;;2.67;1.47;;;;;;;16.10;72.27;100631.91;4949029;28;20204;-74
2022/05/27 02:16:14;;;;;;;3.00;1.30;;;;;;;16.13;71.66;100631.78;4948335;28;20219;-74
2022/05/27 02:18:45;;;;;;;1.60;1.30;;;;;;;16.15;71.60;100632.53;4944873;28;20713;-74
2022/05/27 02:21:18;;;;;;;1.63;1.10;;;;;;;16.17;71.88;100628.06;4947250;28;20214;-74
2022/05/27 02:23:51;;;;;;;3.77;1.13;;;;;;;16.16;72.40;100623.72;4947186;28;20229;-74
2022/05/27 02:26:22;;;;;;;3.00;1.30;;;;;;;16.13;71.84;100621.25;4943993;28;20211;-74
2022/05/27 02:28:53;;;;;;;1.57;1.10;;;;;;;16.15;72.01;100626.44;4942115;28;20211;-74
2022/05/27 02:31:25;;;;;;;3.00;1.20;;;;;;;16.14;71.99;100624.72;4945654;28;20218;-74
2022/05/27 02:36:45;;;;;;;2.77;1.20;;;;;;;16.15;72.00;100619.41;4950543;28;20198;-74
2022/05/27 02:39:11;;;;;;;2.00;0.97;;;;;;;16.14;72.26;100628.19;4950196;28;20195;-74
2022/05/27 02:41:44;;;;;;;1.40;1.30;;;;;;;16.13;72.66;100626.50;4947487;28;20581;-74
2022/05/27 02:44:23;;;;;;;4.80;1.60;;;;;;;16.14;72.09;100632.63;4945502;28;20588;-74
2022/05/27 02:46:59;;;;;;;1.70;1.20;;;;;;;16.14;72.33;100636.09;4947338;28;20210;-74
2022/05/27 02:49:30;;;;;;;2.30;1.33;;;;;;;16.13;72.81;100641.41;4948620;28;20630;-74
2022/05/27 02:52:06;;;;;;;1.67;1.33;;;;;;;16.09;74.17;100654.75;4949150;28;20230;-74
2022/05/27 02:54:43;;;;;;;3.03;1.60;;;;;;;16.00;76.46;100652.53;4950642;28;20202;-74
2022/05/27 02:57:15;;;;;;;3.90;2.50;;;;;;;15.64;84.02;100650.72;4949485;28;20237;-74
2022/05/27 02:59:42;;;;;;;5.43;2.43;;;;;;;15.48;85.87;100655.84;4952234;28;20226;-74
2022/05/27 03:02:13;;;;;;;5.60;2.37;;;;;;;15.28;89.75;100655.88;4953609;28;20202;-74
2022/05/27 03:04:41;;;;;;;4.07;2.40;;;;;;;15.15;92.31;100663.47;4954572;28;20265;-74
2022/05/27 03:07:22;;;;;;;2.90;2.50;;;;;;;15.04;95.03;100660.44;4955017;28;20569;-74
2022/05/27 03:09:53;;;;;;;3.37;2.23;;;;;;;14.97;97.79;100675.63;4958390;28;20256;-74
2022/05/27 03:12:39;;;;;;;4.50;2.37;;;;;;;14.83;99.80;100681.47;4952498;28;20204;-74
2022/05/27 03:15:25;;;;;;;4.50;2.83;;;;;;;14.73;100.00;100678.38;4954109;28;20197;-74
2022/05/27 03:18:06;;;;;;;6.13;3.07;;;;;;;14.56;100.00;100680.84;4953407;28;20701;-74
2022/05/27 03:20:45;;;;;;;4.20;2.20;;;;;;;14.45;100.00;100677.81;4953265;28;20211;-74
2022/05/27 03:23:34;;;;;;;3.57;2.30;;;;;;;14.20;100.00;100674.41;4949399;28;20226;-74
2022/05/27 03:26:05;;;;;;;2.90;2.20;;;;;;;14.05;100.00;100684.66;4952429;28;20411;-74
2022/05/27 03:28:40;;;;;;;2.00;1.80;;;;;;;13.97;100.00;100684.97;4953847;28;20196;-74
2022/05/27 03:31:14;;;;;;;2.03;1.50;;;;;;;13.88;100.00;100691.44;4946040;28;20622;-74
2022/05/27 03:33:51;;;;;;;3.17;1.70;;;;;;;13.78;100.00;100676.97;4951364;28;20559;-74
2022/05/27 03:36:23;;;;;;;1.77;1.43;;;;;;;13.72;100.00;100672.84;4949575;28;20218;-75
2022/05/27 03:38:55;;;;;;;2.73;1.70;;;;;;;13.67;100.00;100668.66;4949615;28;20698;-75
2022/05/27 03:41:26;;;;;;;1.60;1.23;;;;;;;13.66;100.00;100666.97;4952014;28;20215;-75
2022/05/27 03:43:53;;;;;;;1.33;1.13;;;;;;;13.62;100.00;100666.22;4945298;28;20673;-75
2022/05/27 03:46:28;;;;;;;2.40;1.30;;;;;;;13.63;100.00;100654.81;4951842;28;20226;-74
2022/05/27 03:48:56;;;;;;;1.43;1.30;;;;;;;13.58;100.00;100647.16;4947427;28;20205;-74
2022/05/27 03:51:27;;;;;;;1.20;1.10;;;;;;;13.56;100.00;100646.38;4952525;28;20285;-75
2022/05/27 03:54:05;;;;;;;1.53;1.20;;;;;;;13.58;100.00;100647.16;4945803;28;20202;-74
2022/05/27 03:56:33;;;;;;;1.33;1.23;;;;;;;13.60;100.00;100644.47;4945598;28;20298;-74
2022/05/27 03:58:59;;;;;;;3.27;1.73;;;;;;;13.58;100.00;100646.31;4944843;28;21153;-74
2022/05/27 04:01:29;;;;;;;2.03;1.60;;;;;;;13.53;100.00;100640.41;4944902;28;20817;-74
2022/05/27 04:03:57;;;;;;;3.20;1.57;;;;;;;13.55;100.00;100641.19;4945619;28;20693;-74
2022/05/27 04:06:23;;;;;;;1.70;1.50;;;;;;;13.57;100.00;100639.34;4946101;28;20198;-74
2022/05/27 04:08:50;;;;;;;1.50;1.40;;;;;;;13.57;100.00;100637.56;4947185;28;20586;-74
2022/05/27 04:11:16;;;;;;;4.03;1.50;;;;;;;13.58;100.00;100630.59;4945471;28;20218;-74
2022/05/27 04:13:42;;;;;;;2.30;1.20;;;;;;;13.58;100.00;100641.06;4950602;28;20931;-74
2022/05/27 04:16:09;;;;;;;2.13;1.50;;;;;;;13.59;100.00;100637.53;4950717;28;20202;-75
2022/05/27 04:18:35;;;;;;;2.20;1.60;;;;;;;13.55;100.00;100635.94;4947341;28;20206;-74
2022/05/27 04:21:03;;;;;;;2.70;1.30;;;;;;;13.54;100.00;100634.22;4951413;28;20223;-74
2022/05/27 04:23:29;;;;;;;1.80;1.47;;;;;;;13.55;100.00;100638.56;4950358;28;20204;-74
2022/05/27 04:25:56;;;;;;;2.23;1.50;;;;;;;13.58;100.00;100647.16;4951399;28;20648;-74
2022/05/27 04:28:22;;;;;;;2.40;1.60;;;;;;;13.60;100.00;100637.47;4947652;28;20201;-74
2022/05/27 04:30:49;;;;;;;2.47;2.00;;;;;;;13.61;100.00;100644.44;4953705;28;20222;-74
2022/05/27 04:33:15;;;;;;;2.77;1.67;;;;;;;13.64;100.00;100639.03;4948237;28;20208;-74
2022/05/27 04:35:42;;;;;;;2.13;1.80;;;;;;;13.61;100.00;100636.56;4951791;28;20210;-74
2022/05/27 04:38:11;;;;;;;1.70;1.60;;;;;;;13.60;100.00;100624.38;4950065;28;20203;-74
2022/05/27 04:40:37;;;;;;;2.00;1.80;;;;;;;13.64;100.00;100632.97;4948075;28;20626;-74
2022/05/27 04:43:05;;;;;;;2.63;2.17;;;;;;;13.64;100.00;100635.59;4948601;28;20199;-74
2022/05/27 04:45:31;;;;;;;3.23;2.20;;;;;;;13.63;100.00;100629.50;4946910;28;21092;-74
2022/05/27 04:47:58;;;;;;;3.17;1.97;;;;;;;13.61;100.00;100630.44;4949314;28;20310;-74
2022/05/27 04:50:25;;;;;;;2.70;1.83;;;;;;;13.62;100.00;100635.63;4961837;23;20780;-72
2022/05/27 04:52:51;;;;;;;2.93;2.00;;;;;;;13.64;100.00;100628.56;4947658;28;20198;-72
2022/05/27 04:55:19;;;;;;;2.43;2.23;;;;;;;13.62;100.00;100637.41;4949445;29;20208;-72
2022/05/27 04:57:50;;;;;;;2.30;2.10;;;;;;;13.59;100.00;100629.66;4950106;29;20567;-72
2022/05/27 05:00:20;;;;;;;2.73;2.00;;;;;;;13.61;100.00;100625.22;4948843;29;20290;-71
2022/05/27 05:02:47;;;;;;;3.67;2.00;;;;;;;13.63;100.00;100628.63;4944096;28;20199;-71
2022/05/27 05:05:15;;;;;;;2.50;2.30;;;;;;;13.67;100.00;100616.25;4938067;29;20229;-71
2022/05/27 05:07:43;;;;;;;2.57;2.20;;;;;;;13.67;100.00;100617.13;4937781;29;20207;-72
2022/05/27 05:10:12;;;;;;;3.87;2.00;;;;;;;13.64;100.00;100623.31;4949406;29;20693;-72
2022/05/27 05:12:40;;;;;;;2.47;2.27;;;;;;;13.68;100.00;100631.06;4942690;28;20226;-72
2022/05/27 05:15:08;;;;;;;4.40;2.83;;;;;;;13.67;100.00;100617.13;4949748;28;20278;-71
2022/05/27 05:17:34;;;;;;;2.40;2.20;;;;;;;13.66;100.00;100623.28;4941764;28;20221;-72
2022/05/27 05:20:00;;;;;;;3.83;2.43;;;;;;;13.68;100.00;100623.22;4949890;28;20335;-71
2022/05/27 05:22:27;;;;;;;2.50;2.30;;;;;;;13.59;100.00;100625.28;4949240;29;20569;-70
2022/05/27 05:24:54;;;;;;;3.20;2.47;;;;;;;13.56;100.00;100628.03;4950205;28;20534;-71
2022/05/27 05:27:20;;;;;;;4.23;2.47;;;;;;;13.51;100.00;100636.94;4950623;28;20257;-71
2022/05/27 05:29:48;;;;;;;2.90;1.83;;;;;;;13.39;100.00;100633.06;4953489;29;20210;-71
2022/05/27 05:32:14;;;;;;;3.73;2.17;;;;;;;13.34;100.00;100633.22;4957236;28;20199;-67
2022/05/27 05:34:41;;;;;;;2.37;1.70;;;;;;;13.21;100.00;100645.03;4969254;28;20215;-68
2022/05/27 05:37:07;;;;;;;2.90;1.70;;;;;;;13.19;100.00;100641.59;4964889;28;20269;-68
2022/05/27 05:39:36;;;;;;;3.10;1.50;;;;;;;13.04;100.00;100632.56;4965228;29;20265;-68
2022/05/27 05:42:05;;;;;;;3.80;1.50;;;;;;;13.02;100.00;100637.84;4960349;29;20205;-69
2022/05/27 05:44:33;;;;;;;3.90;1.60;;;;;;;13.05;100.00;100634.25;4967382;29;20210;-71
2022/05/27 05:47:01;;;;;;;1.77;1.50;;;;;;;13.04;100.00;100633.41;4965989;28;20294;-70
2022/05/27 05:49:27;;;;;;;1.67;1.40;;;;;;;12.93;100.00;100637.31;4952478;28;20230;-72
2022/05/27 05:51:55;;;;;;;3.53;1.33;;;;;;;12.82;100.00;100633.34;4947313;29;20225;-70
2022/05/27 05:54:23;;;;;;;1.83;1.40;;;;;;;12.77;100.00;100634.38;4953448;28;20201;-70
2022/05/27 05:56:50;;;;;;;2.50;1.30;;;;;;;12.62;100.00;100643.63;4945647;29;20683;-71
2022/05/27 05:59:18;;;;;;;1.50;1.10;;;;;;;12.56;100.00;100642.06;4951294;29;20210;-68
2022/05/27 06:01:45;;;;;;;1.80;1.30;;;;;;;12.48;100.00;100631.84;4952384;28;20261;-71
2022/05/27 06:04:13;;;;;;;3.37;1.13;;;;;;;12.40;100.00;100636.50;4947300;29;20199;-71
2022/05/27 06:06:40;;;;;;;1.53;1.23;;;;;;;12.43;100.00;100633.78;4951382;28;20226;-71
2022/05/27 06:09:08;;;;;;;1.27;1.00;;;;;;;12.34;100.00;100633.25;4952326;28;20203;-72
2022/05/27 06:11:36;;;;;;;1.33;1.07;;;;;;;12.27;100.00;100640.44;4953810;28;20223;-70
2022/05/27 06:14:03;;;;;;;1.30;1.20;;;;;;;12.23;100.00;100642.28;4948637;29;20201;-69
2022/05/27 06:16:29;;;;;;;1.03;0.93;;;;;;;12.19;100.00;100651.16;4950823;29;20225;-70
2022/05/27 06:18:56;;;;;;;1.53;1.20;;;;;;;12.27;100.00;100638.66;4942478;29;20215;-72
2022/05/27 06:21:23;;;;;;;1.40;1.30;;;;;;;12.23;100.00;100647.53;4949920;29;20660;-73
2022/05/27 06:23:50;;;;;;;1.50;1.40;;;;;;;12.27;100.00;100638.66;4948039;29;20213;-71
2022/05/27 06:26:16;;;;;;;1.80;1.60;;;;;;;12.25;100.00;100650.09;4951435;28;20256;-72
2022/05/27 06:34:26;;;;;;;1.63;1.47;;;;;;;12.29;100.00;100660.41;4949415;29;20650;-72
2022/05/27 06:36:57;;;;;;;1.57;1.43;;;;;;;12.23;100.00;100660.59;4947304;28;20235;-72
2022/05/27 06:39:25;;;;;;;2.40;1.53;;;;;;;12.18;100.00;100662.50;4938457;29;20208;-72
2022/05/27 06:41:51;;;;;;;1.67;1.40;;;;;;;12.19;100.00;100673.78;4938449;29;20215;-70
2022/05/27 06:44:19;;;;;;;1.73;1.33;;;;;;;12.14;100.00;100676.56;4951554;29;20199;-71
2022/05/27 06:46:46;;;;;;;1.77;1.33;;;;;;;12.03;100.00;100676.03;4950092;29;20243;-72
2022/05/27 06:49:13;;;;;;;2.00;1.50;;;;;;;12.06;100.00;100670.72;4942539;29;20268;-69
2022/05/27 06:51:41;;;;;;;1.43;1.10;;;;;;;12.03;100.00;100676.03;4942551;29;20715;-72
2022/05/27 06:54:09;;;;;;;1.53;1.20;;;;;;;11.91;100.00;100680.75;4940182;29;20292;-72
2022/05/27 06:56:37;;;;;;;1.30;1.20;;;;;;;11.92;100.00;100690.31;4939553;28;20272;-72
2022/05/27 06:59:03;;;;;;;1.27;1.17;;;;;;;11.84;100.00;100689.66;4945806;28;20203;-72
2022/05/27 07:01:30;;;;;;;2.63;1.60;;;;;;;11.87;100.00;100688.69;4944973;28;20198;-72
2022/05/27 07:03:57;;;;;;;1.83;1.53;;;;;;;11.90;100.00;100689.47;4946794;28;20591;-72
2022/05/27 07:06:26;;;;;;;2.40;1.20;;;;;;;11.91;100.00;100693.81;4947824;29;20225;-70
2022/05/27 07:08:52;;;;;;;1.57;1.43;;;;;;;11.96;100.00;100690.19;4948805;28;20212;-71
2022/05/27 07:11:21;;;;;;;1.30;1.20;;;;;;;11.91;100.00;100688.59;4950933;28;20227;-71
2022/05/27 07:13:47;;;;;;;1.77;1.23;;;;;;;11.88;100.00;100682.56;4939047;29;20209;-71
2022/05/27 07:16:14;;;;;;;2.17;1.43;;;;;;;11.93;100.00;100675.50;4946313;28;20225;-69
2022/05/27 07:18:40;;;;;;;2.03;1.30;;;;;;;12.00;100.00;100678.78;4945680;29;20260;-70
2022/05/27 07:21:07;;;;;;;2.70;1.97;;;;;;;11.99;100.00;100669.22;4944806;29;20210;-72
2022/05/27 07:23:35;;;;;;;1.70;1.60;;;;;;;12.04;100.00;100668.16;4946891;29;20202;-72
2022/05/27 07:26:01;;;;;;;3.50;1.70;;;;;;;12.05;100.00;100663.81;4946206;29;20220;-72
2022/05/27 07:28:29;;;;;;;3.13;1.40;;;;;;;12.02;100.00;100659.50;4945549;28;20214;-70
2022/05/27 07:30:56;;;;;;;1.80;1.33;;;;;;;12.06;100.00;100655.03;4942468;29;20213;-71
2022/05/27 07:33:23;;;;;;;1.73;1.40;;;;;;;12.08;100.00;100655.84;4935270;29;20234;-70
2022/05/27 07:35:50;;;;;;;1.73;1.60;;;;;;;12.13;100.00;100664.41;4941009;29;20232;-71
2022/05/27 07:38:17;;;;;;;1.53;1.43;;;;;;;12.16;100.00;100659.06;4941741;28;20255;-72
2022/05/27 07:40:43;;;;;;;1.80;1.60;;;;;;;12.13;100.00;100656.56;4940511;29;20195;-71
2022/05/27 07:43:10;;;;;;;2.17;1.33;;;;;;;12.07;100.00;100657.63;4943700;28;20203;-71
2022/05/27 07:45:40;;;;;;;1.50;1.40;;;;;;;12.10;100.00;100660.13;4946725;28;20215;-72
2022/05/27 07:48:09;;;;;;;1.57;1.40;;;;;;;12.17;100.00;100657.31;4944498;28;20215;-72
2022/05/27 07:50:35;;;;;;;1.50;1.27;;;;;;;12.21;100.00;100657.16;4940772;28;20210;-72
2022/05/27 07:53:02;;;;;;;2.07;1.50;;;;;;;12.24;100.00;100659.69;4941883;28;20213;-70
2022/05/27 07:55:28;;;;;;;2.40;1.93;;;;;;;12.22;100.00;100652.78;4937034;28;20907;-72
2022/05/27 07:57:54;;;;;;;1.60;1.50;;;;;;;12.19;100.00;100660.72;4949377;29;20214;-72
2022/05/27 08:00:23;;;;;;;1.97;1.60;;;;;;;12.31;100.00;100666.44;4940454;28;20202;-69
2022/05/27 08:02:52;;;;;;;2.20;1.80;;;;;;;12.39;100.00;100667.94;4943225;28;20193;-71
2022/05/27 08:05:21;;;;;;;2.00;1.47;;;;;;;12.52;100.00;100671.00;4939776;28;20206;-70
2022/05/27 08:07:48;;;;;;;4.17;1.80;;;;;;;12.59;100.00;100669.88;4950019;28;20216;-72
2022/05/27 08:10:17;;;;;;;2.17;1.63;;;;;;;12.65;100.00;100673.16;4941492;28;20216;-72
2022/05/27 08:12:44;;;;;;;2.00;1.80;;;;;;;12.73;100.00;100680.72;4940859;28;20211;-72
2022/05/27 08:15:12;;;;;;;2.17;1.80;;;;;;;12.79;100.00;100698.00;4933096;29;20195;-72
2022/05/27 08:17:39;;;;;;;2.97;1.60;;;;;;;12.80;100.00;100682.22;4942558;28;20219;-71
2022/05/27 08:20:10;;;;;;;1.60;1.50;;;;;;;12.78;100.00;100675.34;4936108;28;20225;-71
2022/05/27 08:22:37;;;;;;;1.73;1.63;;;;;;;12.82;100.00;100679.56;4948462;28;20201;-72
2022/05/27 08:25:05;;;;;;;4.07;1.70;;;;;;;12.91;100.00;100674.03;4939362;28;20206;-72
2022/05/27 08:27:31;;;;;;;2.33;1.57;;;;;;;13.01;100.00;100679.78;4938377;29;20223;-72
2022/05/27 08:29:58;;;;;;;2.47;1.80;;;;;;;13.22;100.00;100657.19;4946033;28;20723;-71
2022/05/27 08:32:24;;;;;;;2.20;1.93;;;;;;;13.50;100.00;100651.81;4936595;29;21715;-72
2022/05/27 08:40:34;;;;;;;2.60;2.10;;;;;;;14.16;100.00;100678.09;4949958;28;20276;-69
2022/05/27 08:43:10;;;;;;;2.23;1.90;;;;;;;14.19;100.00;100680.59;4932523;29;20208;-73
2022/05/27 08:45:41;;;;;;;2.10;1.87;;;;;;;14.21;100.00;100677.88;4945270;29;20196;-70
2022/05/27 08:48:10;;;;;;;2.50;1.57;;;;;;;14.17;100.00;100664.03;4943501;28;20213;-73
2022/05/27 08:50:41;;;;;;;3.30;1.80;;;;;;;14.37;100.00;100679.00;4930974;29;20204;-72
2022/05/27 08:53:20;;;;;;;3.30;1.90;;;;;;;14.29;100.00;100696.78;4946084;28;20224;-71
2022/05/27 09:01:38;;;;;;;1.43;1.33;;;;;;;14.44;100.00;100683.97;4905703;29;20242;-71
2022/05/27 09:04:10;;;;;;;2.07;1.83;;;;;;;14.45;100.00;100681.28;4923490;29;20473;-72
2022/05/27 09:06:43;;;;;;;4.60;1.40;;;;;;;14.55;100.00;100681.78;4948616;28;20221;-71
2022/05/27 09:09:18;;;;;;;1.23;1.20;;;;;;;14.61;100.00;100678.91;4942326;28;20213;-71
2022/05/27 09:11:59;;;;;;;1.60;1.50;;;;;;;14.65;100.00;100685.75;4940049;28;20211;-71
2022/05/27 09:14:30;;;;;;;4.90;1.77;;;;;;;14.60;100.00;100684.22;4951644;28;20225;-71
2022/05/27 09:17:01;;;;;;;2.20;1.80;;;;;;;14.65;100.00;100687.50;4943424;28;20227;-72
2022/05/27 09:19:35;;;;;;;1.97;1.53;;;;;;;14.56;100.00;100681.72;4945206;28;20599;-72
2022/05/27 09:22:12;;;;;;;2.50;1.70;;;;;;;14.59;100.00;100680.75;4943797;29;20637;-71
2022/05/27 09:24:50;;;;;;;1.50;1.30;;;;;;;14.45;100.00;100677.81;4947039;28;20205;-71
2022/05/27 09:27:23;;;;;;;2.00;1.50;;;;;;;14.56;100.00;100678.22;4948664;28;20218;-72
2022/05/27 09:29:56;;;;;;;1.50;1.40;;;;;;;14.69;100.00;100678.59;4944544;28;20214;-72
2022/05/27 09:32:30;;;;;;;2.93;1.47;;;;;;;14.83;100.00;100683.22;4938806;29;20585;-71
2022/05/27 09:34:59;;;;;;;1.57;1.47;;;;;;;14.92;100.00;100688.09;4946714;28;20264;-71
2022/05/27 09:37:28;;;;;;;1.80;1.40;;;;;;;15.09;100.00;100676.84;4940220;28;20231;-71
2022/05/27 09:39:59;;;;;;;5.33;1.80;;;;;;;15.43;100.00;100675.38;4941291;28;20229;-71
2022/05/27 09:42:30;;;;;;;2.70;1.80;;;;;;;15.50;100.00;100667.13;4940006;29;20207;-71
2022/05/27 09:44:58;;;;;;;1.40;1.30;;;;;;;15.46;100.00;100680.47;4946776;29;20208;-71
2022/05/27 09:47:29;;;;;;;2.83;1.40;;;;;;;15.51;100.00;100675.84;4945147;28;20558;-71
2022/05/27 09:49:59;;;;;;;1.80;1.40;;;;;;;15.56;100.00;100686.16;4944602;29;20207;-72
2022/05/27 09:52:28;;;;;;;2.33;1.20;;;;;;;15.48;100.00;100678.63;4939456;28;21021;-71
2022/05/27 09:54:59;;;;;;;2.50;1.37;;;;;;;15.39;100.00;100685.16;4939349;28;20578;-71
2022/05/27 09:57:27;;;;;;;1.97;1.67;;;;;;;15.62;100.00;100667.47;4933582;28;20238;-71
2022/05/27 09:59:57;;;;;;;1.57;1.13;;;;;;;15.86;100.00;100668.13;4938437;28;20801;-71
2022/05/27 10:02:30;;;;;;;1.97;1.30;;;;;;;15.96;100.00;100679.91;4941293;28;20630;-72
2022/05/27 10:04:59;;;;;;;1.97;1.10;;;;;;;16.14;100.00;100664.19;4945007;28;20703;-72
2022/05/27 10:07:29;;;;;;;2.03;1.00;;;;;;;16.34;99.38;100669.31;4940067;28;20237;-71
2022/05/27 10:09:58;;;;;;;2.27;1.03;;;;;;;16.55;99.90;100666.53;4945351;28;20198;-71
2022/05/27 10:12:29;;;;;;;1.63;1.10;;;;;;;16.66;96.38;100672.97;4935367;29;20572;-72
2022/05/27 10:14:55;;;;;;;1.20;0.93;;;;;;;16.65;90.99;100673.03;4933935;28;20215;-72
2022/05/27 10:17:29;;;;;;;3.67;1.07;;;;;;;16.78;93.12;100663.59;4938413;29;20218;-72
2022/05/27 10:20:14;;;;;;;1.20;1.10;;;;;;;16.79;90.44;100667.06;4945323;29;20556;-72
2022/05/27 10:22:41;;;;;;;1.13;1.03;;;;;;;16.67;89.08;100668.53;4937738;29;20555;-72
2022/05/27 10:25:12;;;;;;;2.30;1.20;;;;;;;16.77;93.56;100656.63;4938699;29;20210;-72
2022/05/27 10:27:40;;;;;;;2.10;1.20;;;;;;;16.84;91.01;100670.34;4947748;28;20237;-72
2022/05/27 10:30:09;;;;;;;1.93;1.10;;;;;;;16.47;82.94;100669.56;4943182;28;20211;-71
2022/05/27 10:32:38;;;;;;;2.40;1.10;;;;;;;16.39;83.18;100666.44;4936285;29;20214;-71
2022/05/27 10:35:07;;;;;;;1.60;1.03;;;;;;;16.32;83.95;100668.53;4942807;28;20206;-71
2022/05/27 10:37:46;;;;;;;4.43;1.27;;;;;;;16.14;85.13;100669.44;4951156;23;20264;-74
2022/05/27 10:40:24;;;;;;;1.57;0.90;;;;;;;15.87;81.29;100672.47;4929764;29;20261;-72
2022/05/27 10:42:58;;;;;;;1.47;0.90;;;;;;;15.62;82.30;100668.34;4924483;29;20211;-73
2022/05/27 10:45:31;;;;;;;2.60;1.10;;;;;;;15.84;86.04;100660.31;4914098;29;20870;-72
2022/05/27 10:48:19;;;;;;;1.40;1.10;;;;;;;15.68;82.32;100651.44;4913353;29;20207;-74
2022/05/27 10:53:50;;;;;;;1.40;1.20;;;;;;;16.05;82.98;100650.53;4867149;29;20254;-73
2022/05/27 10:56:35;;;;;;;1.00;0.90;;;;;;;15.87;82.94;100644.41;4881296;29;20295;-73
2022/05/27 11:02:21;;;;;;;2.10;1.20;;;;;;;16.50;86.17;100624.69;4868930;29;20247;-73
2022/05/27 11:05:20;;;;;;;3.30;1.20;;;;;;;16.79;82.32;100644.22;4877305;29;20528;-73
2022/05/27 11:08:02;;;;;;;2.37;0.97;;;;;;;17.03;73.33;100655.28;4868926;29;20220;-73
2022/05/27 11:10:40;;;;;;;3.63;0.93;;;;;;;17.06;72.79;100649.00;4878424;29;20510;-73
2022/05/27 11:16:22;;;;;;;1.87;0.93;;;;;;;16.90;62.47;100669.19;4864437;29;20238;-73
2022/05/27 11:19:02;;;;;;;1.57;1.10;;;;;;;17.15;66.72;100631.84;4874373;29;20273;-73
2022/05/27 11:21:55;;;;;;;2.17;0.90;;;;;;;17.33;62.63;100643.22;4870771;29;20325;-73
2022/05/27 11:24:51;;;;;;;1.23;1.00;;;;;;;17.19;63.84;100628.97;4865315;29;20623;-73
2022/05/27 11:27:30;;;;;;;2.57;1.03;;;;;;;17.21;62.44;100631.53;4875337;29;20208;-73
2022/05/27 11:30:19;;;;;;;0.87;0.87;;;;;;;17.47;63.74;100626.66;4871995;29;20212;-73
2022/05/27 11:32:59;;;;;;;3.80;1.27;;;;;;;17.45;63.66;100631.13;4874313;29;20224;-73
2022/05/27 11:35:36;;;;;;;3.13;1.30;;;;;;;17.14;62.49;100640.72;4869449;29;20250;-73
2022/05/27 11:38:21;;;;;;;1.67;0.77;;;;;;;17.10;61.37;100639.19;4873813;29;20208;-73
2022/05/27 11:40:55;;;;;;;5.10;1.20;;;;;;;17.55;63.77;100629.69;4885750;29;20220;-73
2022/05/27 11:43:39;;;;;;;4.83;1.07;;;;;;;17.74;62.25;100627.72;4885715;29;20232;-73
2022/05/27 11:46:32;;;;;;;0.80;0.80;;;;;;;17.81;57.25;100624.78;4876566;29;20631;-74
2022/05/27 11:49:11;;;;;;;2.47;0.80;;;;;;;17.77;57.41;100634.63;4877258;29;20208;-73
2022/05/27 11:51:48;;;;;;;1.00;0.90;;;;;;;17.91;58.67;100625.97;4872534;29;20237;-73
2022/05/27 11:54:32;;;;;;;3.57;1.37;;;;;;;17.92;56.38;100620.63;4881031;29;20224;-73
2022/05/27 11:57:16;;;;;;;3.10;1.10;;;;;;;17.97;55.95;100622.97;4886995;29;20573;-73
2022/05/27 11:59:50;;;;;;;3.93;1.10;;;;;;;18.19;57.40;100622.59;4874864;29;20217;-73
2022/05/27 12:02:31;;;;;;;1.37;0.90;;;;;;;18.43;54.42;100636.13;4875727;29;20228;-74
2022/05/27 12:05:03;;;;;;;2.83;0.83;;;;;;;18.50;53.30;100612.88;4879020;29;20268;-73
2022/05/27 12:07:34;;;;;;;3.17;0.80;;;;;;;18.39;53.01;100623.22;4883686;29;20196;-74
2022/05/27 12:10:13;;;;;;;1.63;0.97;;;;;;;18.33;52.82;100613.91;4871037;29;20730;-72
2022/05/27 12:12:49;;;;;;;3.40;0.90;;;;;;;18.29;51.46;100620.28;4878593;29;20224;-73